Airfield :
LOGIN :

Register | Disclaimer

   EN    FR    IT 

 










Legend :    VFR   Marginal VFR   IFR   Intensive IFR   Very Intensive IFR
Visi :
Ceiling :
>= 8 km
>= 3000ft
5 to 8 km
1000 to 3000 ft
1500m to 5 km
500 to 1000 ft
800 to 1500m
200 to 500 ft
< 800m
< 200 ft
Symbols :   Thunderstorms  Fog  Heavy snow  Heavy precipitations  Wind > 20 kt
SIGMETs :     Misc.  Thunderstorms  Icing  Turbulence  Mountain Waves  Volcanic Ashes






- Airport Elevation : 436 ft
- IATA code : ANG


LFBU - Angoulême Brie Champniers

CURRENT METAR :
  • 200030Z AUTO 17004KT CAVOK 06/05 Q1026

EXPIRED METARs :
  • 200000Z AUTO 17003KT CAVOK 06/05 Q1026
  • 192330Z AUTO 17003KT CAVOK 06/05 Q1026
  • 192300Z AUTO 17003KT CAVOK 06/05 Q1026
  • 192230Z AUTO VRB02KT CAVOK 07/05 Q1027
  • 192200Z AUTO 22003KT 180V240 CAVOK 08/06 Q1027

TAF TAF LFBU
Valid from the 19 at 18:00 until the 20 at 18:00 UTC


191700Z 1918/2018 24010KT 9999 BKN020
BECMG 1922/1924 16005KT
PROB40
TEMPO 2000/2006 0800 FG VV///
BECMG 2013/2015 22010G20KT



MET'MAP, your aeronautical weather chart ! - Copyright ORBIFLY December 2007 - Disclaimer

ORBIFLY MET'MAP TEAM :

Programming & Development : Alexandra Zaïnal
Concept & original design : Baudouin d'Aumeries
Assistance for programming : Marc-Olivier Méhu
Technical & hardware support : Manuel Goepfert

Contact : metmap@orbifly.com




SOURCES & CREDITS :

   NOAA